sensor_id;sensor_type;location;lat;lon;timestamp;P1;durP1;ratioP1;P2;durP2;ratioP2
5690;SDS011;2870;42.680;23.364;2023-12-28T00:01:54;67.83;;;33.40;;
5690;SDS011;2870;42.680;23.364;2023-12-28T00:04:20;76.10;;;35.40;;
5690;SDS011;2870;42.680;23.364;2023-12-28T00:06:47;82.13;;;35.90;;
5690;SDS011;2870;42.680;23.364;2023-12-28T00:09:13;76.80;;;38.20;;
5690;SDS011;2870;42.680;23.364;2023-12-28T00:11:41;71.93;;;36.67;;
5690;SDS011;2870;42.680;23.364;2023-12-28T00:14:07;84.63;;;40.87;;
5690;SDS011;2870;42.680;23.364;2023-12-28T00:16:34;81.67;;;39.23;;
5690;SDS011;2870;42.680;23.364;2023-12-28T00:19:02;81.53;;;42.30;;
5690;SDS011;2870;42.680;23.364;2023-12-28T00:21:29;82.73;;;41.87;;
5690;SDS011;2870;42.680;23.364;2023-12-28T00:23:55;93.80;;;37.30;;
5690;SDS011;2870;42.680;23.364;2023-12-28T00:26:22;79.67;;;39.40;;
5690;SDS011;2870;42.680;23.364;2023-12-28T00:28:50;86.40;;;38.00;;
5690;SDS011;2870;42.680;23.364;2023-12-28T00:31:16;67.93;;;35.50;;
5690;SDS011;2870;42.680;23.364;2023-12-28T00:33:43;68.63;;;35.60;;
5690;SDS011;2870;42.680;23.364;2023-12-28T00:36:09;78.00;;;37.77;;
5690;SDS011;2870;42.680;23.364;2023-12-28T00:38:36;72.63;;;34.60;;
5690;SDS011;2870;42.680;23.364;2023-12-28T00:41:02;82.00;;;35.23;;
5690;SDS011;2870;42.680;23.364;2023-12-28T00:43:29;72.37;;;34.50;;
5690;SDS011;2870;42.680;23.364;2023-12-28T00:45:56;71.27;;;35.50;;
5690;SDS011;2870;42.680;23.364;2023-12-28T00:48:23;61.47;;;33.33;;
5690;SDS011;2870;42.680;23.364;2023-12-28T00:50:49;67.60;;;35.33;;
5690;SDS011;2870;42.680;23.364;2023-12-28T00:53:16;63.20;;;32.73;;
5690;SDS011;2870;42.680;23.364;2023-12-28T00:55:42;63.00;;;33.37;;
5690;SDS011;2870;42.680;23.364;2023-12-28T00:58:09;67.50;;;30.90;;
5690;SDS011;2870;42.680;23.364;2023-12-28T01:00:35;57.13;;;29.17;;
5690;SDS011;2870;42.680;23.364;2023-12-28T01:03:03;59.70;;;28.57;;
5690;SDS011;2870;42.680;23.364;2023-12-28T01:05:30;65.60;;;30.10;;
5690;SDS011;2870;42.680;23.364;2023-12-28T01:07:56;49.13;;;26.20;;
5690;SDS011;2870;42.680;23.364;2023-12-28T01:10:23;37.73;;;21.73;;
5690;SDS011;2870;42.680;23.364;2023-12-28T01:12:49;41.87;;;21.60;;
5690;SDS011;2870;42.680;23.364;2023-12-28T01:15:16;27.63;;;15.57;;
5690;SDS011;2870;42.680;23.364;2023-12-28T01:17:45;29.90;;;18.00;;
5690;SDS011;2870;42.680;23.364;2023-12-28T01:20:13;26.43;;;15.30;;
5690;SDS011;2870;42.680;23.364;2023-12-28T01:22:40;22.43;;;13.83;;
5690;SDS011;2870;42.680;23.364;2023-12-28T01:25:06;27.00;;;15.10;;
5690;SDS011;2870;42.680;23.364;2023-12-28T01:27:33;25.30;;;13.63;;
5690;SDS011;2870;42.680;23.364;2023-12-28T01:29:59;27.30;;;13.97;;
5690;SDS011;2870;42.680;23.364;2023-12-28T01:32:26;22.57;;;13.37;;
5690;SDS011;2870;42.680;23.364;2023-12-28T01:34:53;23.13;;;12.23;;
5690;SDS011;2870;42.680;23.364;2023-12-28T01:37:21;17.93;;;10.17;;
5690;SDS011;2870;42.680;23.364;2023-12-28T01:39:47;18.63;;;11.90;;
5690;SDS011;2870;42.680;23.364;2023-12-28T01:42:14;21.90;;;13.43;;
5690;SDS011;2870;42.680;23.364;2023-12-28T01:44:40;16.93;;;11.40;;
5690;SDS011;2870;42.680;23.364;2023-12-28T01:47:07;19.83;;;12.03;;
5690;SDS011;2870;42.680;23.364;2023-12-28T01:49:33;18.47;;;11.00;;
5690;SDS011;2870;42.680;23.364;2023-12-28T01:52:01;20.63;;;11.97;;
5690;SDS011;2870;42.680;23.364;2023-12-28T01:54:29;22.97;;;12.07;;
5690;SDS011;2870;42.680;23.364;2023-12-28T01:56:56;19.43;;;11.67;;
5690;SDS011;2870;42.680;23.364;2023-12-28T01:59:23;21.13;;;11.53;;
5690;SDS011;2870;42.680;23.364;2023-12-28T02:01:49;15.70;;;11.23;;
5690;SDS011;2870;42.680;23.364;2023-12-28T02:04:16;23.03;;;11.27;;
5690;SDS011;2870;42.680;23.364;2023-12-28T02:06:43;20.40;;;11.73;;
5690;SDS011;2870;42.680;23.364;2023-12-28T02:09:10;22.83;;;13.17;;
5690;SDS011;2870;42.680;23.364;2023-12-28T02:11:37;21.10;;;11.53;;
5690;SDS011;2870;42.680;23.364;2023-12-28T02:14:04;21.23;;;11.93;;
5690;SDS011;2870;42.680;23.364;2023-12-28T02:16:32;18.17;;;10.47;;
5690;SDS011;2870;42.680;23.364;2023-12-28T02:18:59;17.13;;;11.27;;
5690;SDS011;2870;42.680;23.364;2023-12-28T02:21:26;19.30;;;12.40;;
5690;SDS011;2870;42.680;23.364;2023-12-28T02:23:53;23.83;;;13.73;;
5690;SDS011;2870;42.680;23.364;2023-12-28T02:26:21;23.63;;;13.43;;
5690;SDS011;2870;42.680;23.364;2023-12-28T02:28:48;23.80;;;13.93;;
5690;SDS011;2870;42.680;23.364;2023-12-28T02:31:17;20.80;;;13.07;;
5690;SDS011;2870;42.680;23.364;2023-12-28T02:33:48;21.20;;;13.63;;
5690;SDS011;2870;42.680;23.364;2023-12-28T02:36:15;24.53;;;16.03;;
5690;SDS011;2870;42.680;23.364;2023-12-28T02:38:44;26.50;;;16.37;;
5690;SDS011;2870;42.680;23.364;2023-12-28T02:41:11;36.63;;;19.77;;
5690;SDS011;2870;42.680;23.364;2023-12-28T02:43:40;30.57;;;17.67;;
5690;SDS011;2870;42.680;23.364;2023-12-28T02:46:06;38.03;;;20.77;;
5690;SDS011;2870;42.680;23.364;2023-12-28T02:48:33;39.40;;;21.30;;
5690;SDS011;2870;42.680;23.364;2023-12-28T02:50:59;33.30;;;20.30;;
5690;SDS011;2870;42.680;23.364;2023-12-28T02:53:26;43.77;;;22.20;;
5690;SDS011;2870;42.680;23.364;2023-12-28T02:55:52;46.53;;;22.23;;
5690;SDS011;2870;42.680;23.364;2023-12-28T02:58:19;43.87;;;22.00;;
5690;SDS011;2870;42.680;23.364;2023-12-28T03:03:20;42.07;;;22.00;;
5690;SDS011;2870;42.680;23.364;2023-12-28T03:05:47;44.37;;;22.30;;
5690;SDS011;2870;42.680;23.364;2023-12-28T03:08:13;40.87;;;22.40;;
5690;SDS011;2870;42.680;23.364;2023-12-28T03:10:40;37.27;;;22.60;;
5690;SDS011;2870;42.680;23.364;2023-12-28T03:13:06;37.80;;;20.90;;
5690;SDS011;2870;42.680;23.364;2023-12-28T03:15:33;36.40;;;22.00;;
5690;SDS011;2870;42.680;23.364;2023-12-28T03:17:59;38.97;;;19.47;;
5690;SDS011;2870;42.680;23.364;2023-12-28T03:20:27;43.77;;;20.17;;
5690;SDS011;2870;42.680;23.364;2023-12-28T03:22:54;35.73;;;20.20;;
5690;SDS011;2870;42.680;23.364;2023-12-28T03:25:20;44.13;;;20.90;;
5690;SDS011;2870;42.680;23.364;2023-12-28T03:27:47;34.67;;;19.80;;
5690;SDS011;2870;42.680;23.364;2023-12-28T03:30:13;39.38;;;20.63;;
5690;SDS011;2870;42.680;23.364;2023-12-28T03:32:40;30.07;;;19.00;;
5690;SDS011;2870;42.680;23.364;2023-12-28T03:35:06;38.27;;;19.27;;
5690;SDS011;2870;42.680;23.364;2023-12-28T03:37:34;38.23;;;21.37;;
5690;SDS011;2870;42.680;23.364;2023-12-28T03:40:01;35.13;;;20.53;;
5690;SDS011;2870;42.680;23.364;2023-12-28T03:42:27;55.67;;;20.90;;
5690;SDS011;2870;42.680;23.364;2023-12-28T03:44:54;38.20;;;19.87;;
5690;SDS011;2870;42.680;23.364;2023-12-28T03:47:20;45.90;;;21.00;;
5690;SDS011;2870;42.680;23.364;2023-12-28T03:49:48;37.63;;;22.80;;
5690;SDS011;2870;42.680;23.364;2023-12-28T03:52:14;32.30;;;19.80;;
5690;SDS011;2870;42.680;23.364;2023-12-28T03:54:42;36.77;;;21.93;;
5690;SDS011;2870;42.680;23.364;2023-12-28T03:57:08;42.77;;;23.73;;
5690;SDS011;2870;42.680;23.364;2023-12-28T03:59:35;43.80;;;23.70;;
5690;SDS011;2870;42.680;23.364;2023-12-28T04:02:02;44.17;;;25.37;;
5690;SDS011;2870;42.680;23.364;2023-12-28T04:04:28;39.27;;;23.60;;
5690;SDS011;2870;42.680;23.364;2023-12-28T04:06:55;43.00;;;24.27;;
5690;SDS011;2870;42.680;23.364;2023-12-28T04:09:22;50.80;;;26.47;;
5690;SDS011;2870;42.680;23.364;2023-12-28T04:11:50;44.57;;;23.10;;
5690;SDS011;2870;42.680;23.364;2023-12-28T04:14:19;42.77;;;25.83;;
5690;SDS011;2870;42.680;23.364;2023-12-28T04:16:46;50.80;;;25.43;;
5690;SDS011;2870;42.680;23.364;2023-12-28T04:19:12;46.40;;;23.87;;
5690;SDS011;2870;42.680;23.364;2023-12-28T04:21:42;49.83;;;23.67;;
5690;SDS011;2870;42.680;23.364;2023-12-28T04:24:08;40.80;;;24.10;;
5690;SDS011;2870;42.680;23.364;2023-12-28T04:26:35;41.20;;;23.08;;
5690;SDS011;2870;42.680;23.364;2023-12-28T04:29:03;36.25;;;23.35;;
5690;SDS011;2870;42.680;23.364;2023-12-28T04:31:29;46.67;;;23.30;;
5690;SDS011;2870;42.680;23.364;2023-12-28T04:33:56;43.57;;;23.27;;
5690;SDS011;2870;42.680;23.364;2023-12-28T04:36:22;33.93;;;21.70;;
5690;SDS011;2870;42.680;23.364;2023-12-28T04:38:49;43.10;;;22.05;;
5690;SDS011;2870;42.680;23.364;2023-12-28T04:41:15;42.80;;;22.60;;
5690;SDS011;2870;42.680;23.364;2023-12-28T04:43:42;37.43;;;21.60;;
5690;SDS011;2870;42.680;23.364;2023-12-28T04:46:09;34.67;;;21.13;;
5690;SDS011;2870;42.680;23.364;2023-12-28T04:48:36;40.07;;;19.40;;
5690;SDS011;2870;42.680;23.364;2023-12-28T04:51:02;32.25;;;19.55;;
5690;SDS011;2870;42.680;23.364;2023-12-28T04:53:29;31.13;;;19.40;;
5690;SDS011;2870;42.680;23.364;2023-12-28T04:55:55;34.83;;;19.17;;
5690;SDS011;2870;42.680;23.364;2023-12-28T04:58:22;36.03;;;18.27;;
5690;SDS011;2870;42.680;23.364;2023-12-28T05:00:49;37.00;;;19.53;;
5690;SDS011;2870;42.680;23.364;2023-12-28T05:03:16;39.83;;;20.25;;
5690;SDS011;2870;42.680;23.364;2023-12-28T05:05:43;37.40;;;20.08;;
5690;SDS011;2870;42.680;23.364;2023-12-28T05:08:09;35.80;;;20.13;;
5690;SDS011;2870;42.680;23.364;2023-12-28T05:10:36;38.37;;;19.77;;
5690;SDS011;2870;42.680;23.364;2023-12-28T05:13:02;36.38;;;19.70;;
5690;SDS011;2870;42.680;23.364;2023-12-28T05:15:29;30.80;;;18.60;;
5690;SDS011;2870;42.680;23.364;2023-12-28T05:17:55;33.20;;;20.30;;
5690;SDS011;2870;42.680;23.364;2023-12-28T05:20:23;38.07;;;20.23;;
5690;SDS011;2870;42.680;23.364;2023-12-28T05:22:50;34.77;;;19.27;;
5690;SDS011;2870;42.680;23.364;2023-12-28T05:25:16;50.53;;;24.80;;
5690;SDS011;2870;42.680;23.364;2023-12-28T05:27:43;39.80;;;25.30;;
5690;SDS011;2870;42.680;23.364;2023-12-28T05:30:10;42.97;;;26.27;;
5690;SDS011;2870;42.680;23.364;2023-12-28T05:32:36;40.17;;;25.03;;
5690;SDS011;2870;42.680;23.364;2023-12-28T05:35:03;44.43;;;25.80;;
5690;SDS011;2870;42.680;23.364;2023-12-28T05:37:31;48.00;;;26.30;;
5690;SDS011;2870;42.680;23.364;2023-12-28T05:39:58;42.28;;;24.92;;
5690;SDS011;2870;42.680;23.364;2023-12-28T05:42:24;44.50;;;27.03;;
5690;SDS011;2870;42.680;23.364;2023-12-28T05:44:51;46.60;;;27.10;;
5690;SDS011;2870;42.680;23.364;2023-12-28T05:47:17;42.90;;;27.30;;
5690;SDS011;2870;42.680;23.364;2023-12-28T05:49:43;47.43;;;26.40;;
5690;SDS011;2870;42.680;23.364;2023-12-28T05:52:10;42.63;;;25.40;;
5690;SDS011;2870;42.680;23.364;2023-12-28T05:54:41;57.63;;;28.85;;
5690;SDS011;2870;42.680;23.364;2023-12-28T05:57:08;54.15;;;26.60;;
5690;SDS011;2870;42.680;23.364;2023-12-28T05:59:37;46.67;;;25.85;;
5690;SDS011;2870;42.680;23.364;2023-12-28T06:02:03;47.23;;;26.60;;
5690;SDS011;2870;42.680;23.364;2023-12-28T06:04:30;44.05;;;26.90;;
5690;SDS011;2870;42.680;23.364;2023-12-28T06:06:58;42.00;;;24.40;;
5690;SDS011;2870;42.680;23.364;2023-12-28T06:09:24;49.65;;;26.55;;
5690;SDS011;2870;42.680;23.364;2023-12-28T06:11:54;51.63;;;27.42;;
5690;SDS011;2870;42.680;23.364;2023-12-28T06:14:20;56.20;;;29.98;;
5690;SDS011;2870;42.680;23.364;2023-12-28T06:16:47;60.63;;;29.08;;
5690;SDS011;2870;42.680;23.364;2023-12-28T06:19:14;53.95;;;28.77;;
5690;SDS011;2870;42.680;23.364;2023-12-28T06:21:40;62.10;;;31.10;;
5690;SDS011;2870;42.680;23.364;2023-12-28T06:24:07;53.70;;;32.05;;
5690;SDS011;2870;42.680;23.364;2023-12-28T06:26:35;64.55;;;30.70;;
5690;SDS011;2870;42.680;23.364;2023-12-28T06:29:06;50.35;;;29.30;;
5690;SDS011;2870;42.680;23.364;2023-12-28T06:31:32;63.78;;;30.67;;
5690;SDS011;2870;42.680;23.364;2023-12-28T06:34:01;57.22;;;31.25;;
5690;SDS011;2870;42.680;23.364;2023-12-28T06:36:27;59.65;;;34.85;;
5690;SDS011;2870;42.680;23.364;2023-12-28T06:38:54;69.10;;;42.13;;
5690;SDS011;2870;42.680;23.364;2023-12-28T06:41:20;109.30;;;45.67;;
5690;SDS011;2870;42.680;23.364;2023-12-28T06:43:47;78.45;;;44.95;;
5690;SDS011;2870;42.680;23.364;2023-12-28T06:46:16;94.55;;;48.28;;
5690;SDS011;2870;42.680;23.364;2023-12-28T06:48:43;91.78;;;50.97;;
5690;SDS011;2870;42.680;23.364;2023-12-28T06:51:09;95.43;;;53.38;;
5690;SDS011;2870;42.680;23.364;2023-12-28T06:53:36;87.35;;;48.60;;
5690;SDS011;2870;42.680;23.364;2023-12-28T06:56:02;75.38;;;39.65;;
5690;SDS011;2870;42.680;23.364;2023-12-28T06:58:29;68.72;;;38.83;;
5690;SDS011;2870;42.680;23.364;2023-12-28T07:00:55;66.03;;;37.40;;
5690;SDS011;2870;42.680;23.364;2023-12-28T07:03:24;69.68;;;39.83;;
5690;SDS011;2870;42.680;23.364;2023-12-28T07:05:51;76.97;;;40.60;;
5690;SDS011;2870;42.680;23.364;2023-12-28T07:08:17;65.78;;;38.50;;
5690;SDS011;2870;42.680;23.364;2023-12-28T07:10:44;66.07;;;37.58;;
5690;SDS011;2870;42.680;23.364;2023-12-28T07:13:10;65.97;;;36.70;;
5690;SDS011;2870;42.680;23.364;2023-12-28T07:15:37;67.32;;;36.63;;
5690;SDS011;2870;42.680;23.364;2023-12-28T07:18:03;61.55;;;35.35;;
5690;SDS011;2870;42.680;23.364;2023-12-28T07:20:31;57.47;;;34.53;;
5690;SDS011;2870;42.680;23.364;2023-12-28T07:22:58;50.63;;;31.80;;
5690;SDS011;2870;42.680;23.364;2023-12-28T07:25:24;57.85;;;32.80;;
5690;SDS011;2870;42.680;23.364;2023-12-28T07:27:51;77.53;;;38.72;;
5690;SDS011;2870;42.680;23.364;2023-12-28T07:30:17;55.42;;;33.05;;
5690;SDS011;2870;42.680;23.364;2023-12-28T07:32:44;57.78;;;31.83;;
5690;SDS011;2870;42.680;23.364;2023-12-28T07:35:11;44.63;;;23.60;;
5690;SDS011;2870;42.680;23.364;2023-12-28T07:37:39;41.20;;;25.50;;
5690;SDS011;2870;42.680;23.364;2023-12-28T07:40:06;40.60;;;23.43;;
5690;SDS011;2870;42.680;23.364;2023-12-28T07:42:32;63.00;;;27.13;;
5690;SDS011;2870;42.680;23.364;2023-12-28T07:44:59;50.80;;;28.35;;
5690;SDS011;2870;42.680;23.364;2023-12-28T07:47:25;45.27;;;27.50;;
5690;SDS011;2870;42.680;23.364;2023-12-28T07:49:53;38.70;;;25.40;;
5690;SDS011;2870;42.680;23.364;2023-12-28T07:52:19;48.10;;;26.90;;
5690;SDS011;2870;42.680;23.364;2023-12-28T07:54:47;40.40;;;23.90;;
5690;SDS011;2870;42.680;23.364;2023-12-28T07:57:14;44.57;;;24.57;;
5690;SDS011;2870;42.680;23.364;2023-12-28T07:59:40;50.80;;;27.63;;
5690;SDS011;2870;42.680;23.364;2023-12-28T08:02:07;43.43;;;23.77;;
5690;SDS011;2870;42.680;23.364;2023-12-28T08:04:34;46.27;;;23.73;;
5690;SDS011;2870;42.680;23.364;2023-12-28T08:07:00;36.33;;;22.87;;
5690;SDS011;2870;42.680;23.364;2023-12-28T08:09:27;44.87;;;25.60;;
5690;SDS011;2870;42.680;23.364;2023-12-28T08:11:54;42.17;;;24.10;;
5690;SDS011;2870;42.680;23.364;2023-12-28T08:14:21;40.73;;;24.47;;
5690;SDS011;2870;42.680;23.364;2023-12-28T08:16:47;43.40;;;25.20;;
5690;SDS011;2870;42.680;23.364;2023-12-28T08:19:14;42.77;;;25.27;;
5690;SDS011;2870;42.680;23.364;2023-12-28T08:21:40;49.90;;;27.00;;
5690;SDS011;2870;42.680;23.364;2023-12-28T08:24:07;46.70;;;27.20;;
5690;SDS011;2870;42.680;23.364;2023-12-28T08:26:34;42.00;;;24.90;;
5690;SDS011;2870;42.680;23.364;2023-12-28T08:29:01;50.80;;;26.90;;
5690;SDS011;2870;42.680;23.364;2023-12-28T08:31:28;38.10;;;24.33;;
5690;SDS011;2870;42.680;23.364;2023-12-28T08:33:55;43.50;;;25.93;;
5690;SDS011;2870;42.680;23.364;2023-12-28T08:36:21;41.27;;;24.03;;
5690;SDS011;2870;42.680;23.364;2023-12-28T08:38:48;41.70;;;26.53;;
5690;SDS011;2870;42.680;23.364;2023-12-28T08:41:17;43.10;;;25.00;;
5690;SDS011;2870;42.680;23.364;2023-12-28T08:43:44;46.43;;;26.40;;
5690;SDS011;2870;42.680;23.364;2023-12-28T08:46:12;57.47;;;25.27;;
5690;SDS011;2870;42.680;23.364;2023-12-28T08:48:38;38.70;;;23.63;;
5690;SDS011;2870;42.680;23.364;2023-12-28T08:51:05;33.53;;;23.03;;
5690;SDS011;2870;42.680;23.364;2023-12-28T08:53:31;39.90;;;24.03;;
5690;SDS011;2870;42.680;23.364;2023-12-28T08:55:58;43.40;;;25.60;;
5690;SDS011;2870;42.680;23.364;2023-12-28T08:58:24;49.33;;;24.80;;
5690;SDS011;2870;42.680;23.364;2023-12-28T09:00:51;44.90;;;23.80;;
5690;SDS011;2870;42.680;23.364;2023-12-28T09:03:19;39.13;;;23.70;;
5690;SDS011;2870;42.680;23.364;2023-12-28T09:05:45;37.40;;;23.70;;
5690;SDS011;2870;42.680;23.364;2023-12-28T09:08:11;39.47;;;22.90;;
5690;SDS011;2870;42.680;23.364;2023-12-28T09:10:38;38.33;;;23.53;;
5690;SDS011;2870;42.680;23.364;2023-12-28T09:13:06;49.47;;;27.63;;
5690;SDS011;2870;42.680;23.364;2023-12-28T09:15:32;48.87;;;27.37;;
5690;SDS011;2870;42.680;23.364;2023-12-28T09:17:59;45.13;;;28.13;;
5690;SDS011;2870;42.680;23.364;2023-12-28T09:20:27;46.07;;;28.67;;
5690;SDS011;2870;42.680;23.364;2023-12-28T09:22:53;54.10;;;28.87;;
5690;SDS011;2870;42.680;23.364;2023-12-28T09:25:21;48.57;;;28.77;;
5690;SDS011;2870;42.680;23.364;2023-12-28T09:27:47;58.83;;;31.30;;
5690;SDS011;2870;42.680;23.364;2023-12-28T09:30:14;49.83;;;31.30;;
5690;SDS011;2870;42.680;23.364;2023-12-28T09:32:40;52.33;;;29.00;;
5690;SDS011;2870;42.680;23.364;2023-12-28T09:35:07;47.93;;;31.20;;
5690;SDS011;2870;42.680;23.364;2023-12-28T09:37:35;64.10;;;31.30;;
5690;SDS011;2870;42.680;23.364;2023-12-28T09:40:01;56.30;;;32.93;;
5690;SDS011;2870;42.680;23.364;2023-12-28T09:42:29;49.47;;;30.80;;
5690;SDS011;2870;42.680;23.364;2023-12-28T09:44:56;58.53;;;29.27;;
5690;SDS011;2870;42.680;23.364;2023-12-28T09:47:22;53.50;;;32.90;;
5690;SDS011;2870;42.680;23.364;2023-12-28T09:49:49;55.80;;;32.67;;
5690;SDS011;2870;42.680;23.364;2023-12-28T09:52:16;54.20;;;32.20;;
5690;SDS011;2870;42.680;23.364;2023-12-28T09:54:44;64.33;;;32.80;;
5690;SDS011;2870;42.680;23.364;2023-12-28T09:57:10;46.73;;;28.67;;
5690;SDS011;2870;42.680;23.364;2023-12-28T09:59:37;50.40;;;31.70;;
5690;SDS011;2870;42.680;23.364;2023-12-28T10:02:04;56.40;;;33.73;;
5690;SDS011;2870;42.680;23.364;2023-12-28T10:04:31;54.80;;;32.97;;
5690;SDS011;2870;42.680;23.364;2023-12-28T10:06:58;58.50;;;31.67;;
5690;SDS011;2870;42.680;23.364;2023-12-28T10:09:24;53.90;;;32.80;;
5690;SDS011;2870;42.680;23.364;2023-12-28T10:11:54;50.10;;;31.60;;
5690;SDS011;2870;42.680;23.364;2023-12-28T10:14:21;73.37;;;35.10;;
5690;SDS011;2870;42.680;23.364;2023-12-28T10:16:47;57.07;;;34.53;;
5690;SDS011;2870;42.680;23.364;2023-12-28T10:19:14;52.17;;;33.47;;
5690;SDS011;2870;42.680;23.364;2023-12-28T10:21:40;61.20;;;33.10;;
5690;SDS011;2870;42.680;23.364;2023-12-28T10:24:09;48.50;;;29.90;;
5690;SDS011;2870;42.680;23.364;2023-12-28T10:26:36;46.67;;;28.80;;
5690;SDS011;2870;42.680;23.364;2023-12-28T10:29:04;53.23;;;27.57;;
5690;SDS011;2870;42.680;23.364;2023-12-28T10:31:30;43.97;;;26.87;;
5690;SDS011;2870;42.680;23.364;2023-12-28T10:33:57;44.97;;;27.70;;
5690;SDS011;2870;42.680;23.364;2023-12-28T10:36:26;50.90;;;27.37;;
5690;SDS011;2870;42.680;23.364;2023-12-28T10:38:53;42.50;;;25.43;;
5690;SDS011;2870;42.680;23.364;2023-12-28T10:41:20;44.60;;;26.30;;
5690;SDS011;2870;42.680;23.364;2023-12-28T10:43:50;51.13;;;25.87;;
5690;SDS011;2870;42.680;23.364;2023-12-28T10:46:22;52.70;;;23.67;;
5690;SDS011;2870;42.680;23.364;2023-12-28T10:48:48;41.00;;;25.70;;
5690;SDS011;2870;42.680;23.364;2023-12-28T10:51:18;41.90;;;26.23;;
5690;SDS011;2870;42.680;23.364;2023-12-28T10:53:49;42.90;;;26.30;;
5690;SDS011;2870;42.680;23.364;2023-12-28T10:56:20;48.00;;;26.93;;
5690;SDS011;2870;42.680;23.364;2023-12-28T10:58:48;46.30;;;25.50;;
5690;SDS011;2870;42.680;23.364;2023-12-28T11:01:16;38.70;;;24.30;;
5690;SDS011;2870;42.680;23.364;2023-12-28T11:03:45;40.90;;;25.20;;
5690;SDS011;2870;42.680;23.364;2023-12-28T11:06:13;42.07;;;25.60;;
5690;SDS011;2870;42.680;23.364;2023-12-28T11:08:43;40.87;;;27.27;;
5690;SDS011;2870;42.680;23.364;2023-12-28T11:11:13;47.40;;;28.57;;
5690;SDS011;2870;42.680;23.364;2023-12-28T11:13:41;44.40;;;28.00;;
5690;SDS011;2870;42.680;23.364;2023-12-28T11:16:08;46.87;;;28.13;;
5690;SDS011;2870;42.680;23.364;2023-12-28T11:18:35;42.37;;;26.87;;
5690;SDS011;2870;42.680;23.364;2023-12-28T11:21:03;64.40;;;27.93;;
5690;SDS011;2870;42.680;23.364;2023-12-28T11:23:29;66.53;;;29.97;;
5690;SDS011;2870;42.680;23.364;2023-12-28T11:25:56;47.30;;;29.00;;
5690;SDS011;2870;42.680;23.364;2023-12-28T11:28:23;55.10;;;29.70;;
5690;SDS011;2870;42.680;23.364;2023-12-28T11:30:49;48.17;;;30.37;;
5690;SDS011;2870;42.680;23.364;2023-12-28T11:33:17;49.73;;;30.70;;
5690;SDS011;2870;42.680;23.364;2023-12-28T11:35:44;49.10;;;28.73;;
5690;SDS011;2870;42.680;23.364;2023-12-28T11:38:15;59.93;;;32.10;;
5690;SDS011;2870;42.680;23.364;2023-12-28T11:40:42;47.10;;;27.50;;
5690;SDS011;2870;42.680;23.364;2023-12-28T11:43:14;48.67;;;29.40;;
5690;SDS011;2870;42.680;23.364;2023-12-28T11:45:46;49.93;;;30.97;;
5690;SDS011;2870;42.680;23.364;2023-12-28T11:48:21;51.90;;;29.73;;
5690;SDS011;2870;42.680;23.364;2023-12-28T11:50:48;50.87;;;28.67;;
5690;SDS011;2870;42.680;23.364;2023-12-28T11:53:16;48.17;;;29.87;;
5690;SDS011;2870;42.680;23.364;2023-12-28T11:55:43;53.80;;;27.97;;
5690;SDS011;2870;42.680;23.364;2023-12-28T11:58:09;46.90;;;28.47;;
5690;SDS011;2870;42.680;23.364;2023-12-28T12:00:36;46.33;;;30.53;;
5690;SDS011;2870;42.680;23.364;2023-12-28T12:03:02;54.73;;;29.87;;
5690;SDS011;2870;42.680;23.364;2023-12-28T12:05:29;45.83;;;27.90;;
5690;SDS011;2870;42.680;23.364;2023-12-28T12:07:56;51.77;;;25.90;;
5690;SDS011;2870;42.680;23.364;2023-12-28T12:10:23;42.30;;;25.13;;
5690;SDS011;2870;42.680;23.364;2023-12-28T12:12:51;57.30;;;24.40;;
5690;SDS011;2870;42.680;23.364;2023-12-28T12:15:17;42.20;;;23.70;;
5690;SDS011;2870;42.680;23.364;2023-12-28T12:17:44;63.97;;;24.43;;
5690;SDS011;2870;42.680;23.364;2023-12-28T12:20:11;41.37;;;23.03;;
5690;SDS011;2870;42.680;23.364;2023-12-28T12:22:37;46.43;;;25.00;;
5690;SDS011;2870;42.680;23.364;2023-12-28T12:25:05;40.50;;;26.27;;
5690;SDS011;2870;42.680;23.364;2023-12-28T12:27:34;45.13;;;24.27;;
5690;SDS011;2870;42.680;23.364;2023-12-28T12:30:01;44.13;;;26.90;;
5690;SDS011;2870;42.680;23.364;2023-12-28T12:32:28;47.47;;;25.93;;
5690;SDS011;2870;42.680;23.364;2023-12-28T12:34:54;54.33;;;30.50;;
5690;SDS011;2870;42.680;23.364;2023-12-28T12:37:21;53.07;;;30.00;;
5690;SDS011;2870;42.680;23.364;2023-12-28T12:39:47;50.83;;;30.17;;
5690;SDS011;2870;42.680;23.364;2023-12-28T12:42:14;52.03;;;29.30;;
5690;SDS011;2870;42.680;23.364;2023-12-28T12:44:43;48.73;;;27.70;;
5690;SDS011;2870;42.680;23.364;2023-12-28T12:47:09;53.87;;;30.40;;
5690;SDS011;2870;42.680;23.364;2023-12-28T12:49:36;50.03;;;28.80;;
5690;SDS011;2870;42.680;23.364;2023-12-28T12:52:03;50.20;;;28.87;;
5690;SDS011;2870;42.680;23.364;2023-12-28T12:54:29;45.00;;;26.87;;
5690;SDS011;2870;42.680;23.364;2023-12-28T12:56:56;47.60;;;27.97;;
5690;SDS011;2870;42.680;23.364;2023-12-28T12:59:24;45.67;;;28.30;;
5690;SDS011;2870;42.680;23.364;2023-12-28T13:01:52;54.93;;;28.80;;
5690;SDS011;2870;42.680;23.364;2023-12-28T13:04:19;46.57;;;28.40;;
5690;SDS011;2870;42.680;23.364;2023-12-28T13:06:45;50.10;;;28.37;;
5690;SDS011;2870;42.680;23.364;2023-12-28T13:09:12;52.17;;;27.80;;
5690;SDS011;2870;42.680;23.364;2023-12-28T13:11:38;57.60;;;28.07;;
5690;SDS011;2870;42.680;23.364;2023-12-28T13:14:05;57.47;;;26.70;;
5690;SDS011;2870;42.680;23.364;2023-12-28T13:16:31;41.80;;;25.10;;
5690;SDS011;2870;42.680;23.364;2023-12-28T13:18:59;49.20;;;24.80;;
5690;SDS011;2870;42.680;23.364;2023-12-28T13:21:26;48.30;;;27.37;;
5690;SDS011;2870;42.680;23.364;2023-12-28T13:23:52;43.97;;;23.20;;
5690;SDS011;2870;42.680;23.364;2023-12-28T13:26:19;46.03;;;25.20;;
5690;SDS011;2870;42.680;23.364;2023-12-28T13:28:45;42.17;;;24.63;;
5690;SDS011;2870;42.680;23.364;2023-12-28T13:31:12;49.50;;;24.63;;
5690;SDS011;2870;42.680;23.364;2023-12-28T13:33:38;42.30;;;25.37;;
5690;SDS011;2870;42.680;23.364;2023-12-28T13:36:06;37.23;;;21.50;;
5690;SDS011;2870;42.680;23.364;2023-12-28T13:38:33;37.80;;;21.90;;
5690;SDS011;2870;42.680;23.364;2023-12-28T13:41:00;43.63;;;23.80;;
5690;SDS011;2870;42.680;23.364;2023-12-28T13:43:26;47.90;;;26.07;;
5690;SDS011;2870;42.680;23.364;2023-12-28T13:45:52;41.13;;;21.73;;
5690;SDS011;2870;42.680;23.364;2023-12-28T13:48:19;38.60;;;21.73;;
5690;SDS011;2870;42.680;23.364;2023-12-28T13:50:45;33.63;;;20.53;;
5690;SDS011;2870;42.680;23.364;2023-12-28T13:53:13;37.20;;;20.53;;
5690;SDS011;2870;42.680;23.364;2023-12-28T13:55:40;34.97;;;22.17;;
5690;SDS011;2870;42.680;23.364;2023-12-28T13:58:06;50.40;;;22.00;;
5690;SDS011;2870;42.680;23.364;2023-12-28T14:00:33;39.47;;;22.00;;
5690;SDS011;2870;42.680;23.364;2023-12-28T14:03:00;42.53;;;21.10;;
5690;SDS011;2870;42.680;23.364;2023-12-28T14:05:27;33.30;;;20.43;;
5690;SDS011;2870;42.680;23.364;2023-12-28T14:07:53;49.53;;;21.27;;
5690;SDS011;2870;42.680;23.364;2023-12-28T14:10:21;48.17;;;22.40;;
5690;SDS011;2870;42.680;23.364;2023-12-28T14:12:47;33.20;;;22.00;;
5690;SDS011;2870;42.680;23.364;2023-12-28T14:15:15;41.13;;;21.93;;
5690;SDS011;2870;42.680;23.364;2023-12-28T14:17:41;35.37;;;20.43;;
5690;SDS011;2870;42.680;23.364;2023-12-28T14:20:08;35.07;;;20.30;;
5690;SDS011;2870;42.680;23.364;2023-12-28T14:22:36;39.90;;;22.37;;
5690;SDS011;2870;42.680;23.364;2023-12-28T14:25:03;45.07;;;23.50;;
5690;SDS011;2870;42.680;23.364;2023-12-28T14:27:32;49.63;;;24.60;;
5690;SDS011;2870;42.680;23.364;2023-12-28T14:29:58;43.97;;;23.73;;
5690;SDS011;2870;42.680;23.364;2023-12-28T14:32:28;44.40;;;23.43;;
5690;SDS011;2870;42.680;23.364;2023-12-28T14:34:55;54.20;;;24.17;;